Etusivu
METAR-TAF:

METAR-TAF

Lentoasemat :

Lyon, Ranska

Leveyspiiri: 45-43N, Pituuspiiri: 004-57E, korkeus merenpinnasta: 200 m

Tämänhetkinen sää

Tämä raportti tehtiin 25 minuuttia sitten, kello 01.30 UTC
Tuuli 2 kn etelästä
Lämpötila 11°C
Kosteus 62%
Ilmanpaine 1021 hPa
Näkyvyys 10 km tai enemmän
ei pilviä alle 1500 m:ssä eikä cumulonimbus-pilviä

METAR: LFLY 100130Z AUTO 17002KT CAVOK 11/04 Q1021

Aika: 03:55 (01:55 UTC)


TAF: puuttuu

Säähavainnot ja -ennusteet yli 4000 lentoasemalta (METAR- ja TAF-raportit).

Käytössä olevat sääasemat on merkitty karttaan keltaisilla ja punaisilla pisteillä.

Aseta hiiri pisteen päälle nähdäksesi sääaseman nimen.

Klikkaa sitten nähdäksesi säähavainnot ja -ennusteet.

Kartan vaihtaminen: klikkaa mustalla rastilla varustettuja vihreitä pisteitä, niin voit zoomata sisään; viivalla varustettua vihreää pistettä, niin voit zoomata ulos tai vihreitä nuolia, niin pääset viereisille kartoille.


METAR-TAF: